createdAt,value
2023-04-13T03:40:29.737Z,7.20
2023-04-13T03:51:06.445Z,7.20
2023-04-13T04:01:54.028Z,7.30
2023-04-13T04:12:30.031Z,7.30
2023-04-13T04:23:05.862Z,7.30
2023-04-13T04:33:51.698Z,7.30
2023-04-13T04:44:30.817Z,7.30
2023-04-13T04:55:10.682Z,7.30
2023-04-13T05:05:50.202Z,7.30
2023-04-13T05:16:36.089Z,7.40
2023-04-13T05:27:19.256Z,7.60
2023-04-13T05:37:57.042Z,7.50
2023-04-13T05:48:34.396Z,7.50
2023-04-13T05:59:15.389Z,7.70
2023-04-13T06:09:51.817Z,8.40
2023-04-13T06:20:27.527Z,8.20
2023-04-13T06:31:06.323Z,7.90
2023-04-13T06:41:42.718Z,7.80
2023-04-13T06:52:37.753Z,7.70
2023-04-13T07:03:13.659Z,7.90
2023-04-13T07:13:51.009Z,8.00
2023-04-13T07:24:29.809Z,8.10
2023-04-13T07:35:08.400Z,8.20
2023-04-13T07:45:46.761Z,8.20
2023-04-13T07:56:22.740Z,8.60
2023-04-13T08:07:04.676Z,8.30
2023-04-13T08:17:41.279Z,8.20
2023-04-13T08:28:17.152Z,8.60
2023-04-13T08:38:53.913Z,8.60
2023-04-13T08:49:31.925Z,8.50
2023-04-13T09:00:35.759Z,9.20
2023-04-13T09:11:12.426Z,9.80
2023-04-13T09:21:50.693Z,10.20
2023-04-13T09:32:27.858Z,10.80
2023-04-13T09:43:05.531Z,9.80
2023-04-13T09:53:43.112Z,9.60
2023-04-13T10:04:19.503Z,9.60
2023-04-13T10:15:07.958Z,10.00
2023-04-13T10:25:54.294Z,9.50
2023-04-13T10:36:43.518Z,9.50
2023-04-13T10:47:21.360Z,11.40
2023-04-13T10:57:58.336Z,11.60
2023-04-13T11:08:39.245Z,13.10
2023-04-13T11:19:15.278Z,12.00
2023-04-13T11:29:58.192Z,11.20
2023-04-13T11:40:33.896Z,12.20
2023-04-13T11:51:11.175Z,13.10
2023-04-13T12:01:55.450Z,13.00
2023-04-13T12:33:54.168Z,12.20
2023-04-13T12:44:32.392Z,12.70
2023-04-13T12:55:09.888Z,12.60
2023-04-13T13:05:45.761Z,13.00
2023-04-13T13:16:21.720Z,11.70
2023-04-13T13:37:36.852Z,13.20
2023-04-13T13:48:12.310Z,13.00
2023-04-13T13:58:57.139Z,12.60
2023-04-13T14:09:33.724Z,10.50
2023-04-13T14:20:12.553Z,9.60
2023-04-13T14:30:48.089Z,9.20
2023-04-13T14:41:23.932Z,10.00
2023-04-13T14:51:59.662Z,10.30
2023-04-13T15:02:37.105Z,10.60
2023-04-13T15:13:12.791Z,11.10
2023-04-13T15:23:48.602Z,11.90
2023-04-13T15:34:24.500Z,11.30
2023-04-13T15:45:09.401Z,11.30
2023-04-13T15:55:44.990Z,11.30
2023-04-13T16:06:20.448Z,10.40
2023-04-13T16:16:59.751Z,10.20
2023-04-13T16:27:35.986Z,9.90
2023-04-13T16:38:11.712Z,9.70
2023-04-13T16:48:47.498Z,9.00
2023-04-13T16:59:23.243Z,8.70
2023-04-13T17:09:58.662Z,8.80
2023-04-13T17:20:35.354Z,8.80
2023-04-13T17:31:11.256Z,9.00
2023-04-13T17:41:46.663Z,9.30
2023-04-13T17:52:22.189Z,9.20
2023-04-13T18:02:39.325Z,9.20
2023-04-13T18:12:59.935Z,8.90
2023-04-13T18:23:15.100Z,8.50
2023-04-13T18:33:31.657Z,8.40
2023-04-13T18:43:47.365Z,8.10
2023-04-13T18:54:04.079Z,7.90
2023-04-13T19:04:19.900Z,7.80
2023-04-13T19:14:35.183Z,7.40
2023-04-13T19:24:50.514Z,7.20
2023-04-13T19:35:06.449Z,7.10
2023-04-13T19:45:22.012Z,6.90
2023-04-13T19:55:37.304Z,6.80
2023-04-13T20:05:53.345Z,6.70
2023-04-13T20:16:27.596Z,6.60
2023-04-13T20:27:03.424Z,6.30
2023-04-13T20:37:39.248Z,6.00
2023-04-13T20:58:56.060Z,5.80
2023-04-13T21:09:31.870Z,5.70
2023-04-13T21:20:08.918Z,5.50
